Lima, OH (45807)

8:12 PM EST on February 09, 2016 (GMT -0500)
Near Allentown | | Change Station
CLOSE
Current Station
Personal Weather Station
Location: Elida, OH
Elevation: 814 ft
Nearby Weather Stations

Elev 814 ft 40.76 °N, 84.21 °W | Updated 3 seconds ago

Overcast
Overcast
23.6 °F
Feels Like 13 °F
N
10.0
Wind Variable Wind from West
Gusts 19.0 mph

Today
High -- | Low -- °F
--% Chance of Precip.
Yesterday
High -- | Low -- °F
Precip. -- in
Pressure 29.83 in
Visibility 6.0 miles
Clouds Overcast 1300 ft
Windchill 13 °F
Dew Point 21 °F
Humidity 88%
Rainfall 0.00 in
Snow Depth Not available.
7:38 AM 6:03 PM
Waxing Crescent, 3% visible
METAR KAOH 100053Z AUTO 27016KT 6SM -SN BR OVC013 M05/M07 A2979 RMK AO2 SLP101 P0000 T10501072
Pressure 29.83 in
Visibility 6.0 miles
Clouds Overcast 1300 ft
Windchill 13 °F
Dew Point 21 °F
Humidity 88%
Rainfall 0.00 in
Snow Depth Not available.
7:38 AM 6:03 PM
Waxing Crescent, 3% visible
METAR KAOH 100053Z AUTO 27016KT 6SM -SN BR OVC013 M05/M07 A2979 RMK AO2 SLP101 P0000 T10501072

10-Day Weather Forecast

Almanac

Astronomy

Feb. 09, 2016 Rise Set
Actual Time
Civil Twilight
Nautical Twilight
Astronomical Twilight
Moon
Length of Visible Light
Length of Day
Tomorrow will be .
, % of the Moon is Illuminated

Today's Extremes

State Highs State Lows

Community

WunderPhotos

Upload Photos

1,891,752 photos uploaded!

WunderBlog® & News

Nearby

Air Quality

  Air Quality AQ Index Pollutant
Not available.

Snow Depth

Station Depth Elevation

Earthquake Activity

City Distance Mag. Time & Date
Minimum magnitude displayed is 2.5.

Coastal Water Temperatures

Place Temperature

Stations

Nearby Weather Stations

Station Location Temp. Windchill Dew Point Humidity Wind Precip. Elev Updated Type
                   

Watches & Warnings

There are currently no watches in effect.